Time;durP1;ratioP1;P1;durP2;ratioP2;P2;SDS_P1;SDS_P2;PMS_P1;PMS_P2;Temp;Humidity;BMP_temperature;BMP_pressure;BME280_temperature;BME280_humidity;BME280_pressure;Samples;Min_cycle;Max_cycle;Signal;HPM_P1;HPM_P2
2020/12/14 00:01:03;;;;;;;9.57;6.47;;;3.70;99.90;;;;;;4971084;28;20034;-82
2020/12/14 00:03:28;;;;;;;8.50;6.13;;;3.70;99.90;;;;;;4955062;28;20512;-83
2020/12/14 00:05:54;;;;;;;8.65;6.05;;;3.70;99.90;;;;;;4952474;28;20066;-82
2020/12/14 00:08:19;;;;;;;9.07;6.13;;;3.70;99.90;;;;;;4970968;28;20039;-81
2020/12/14 00:10:45;;;;;;;8.48;5.68;;;3.80;99.90;;;;;;4969953;28;20077;-82
2020/12/14 00:13:10;;;;;;;8.93;6.00;;;3.80;99.90;;;;;;4971984;28;20081;-80
2020/12/14 00:15:36;;;;;;;10.80;6.72;;;3.80;99.90;;;;;;4978658;28;20031;-82
2020/12/14 00:18:02;;;;;;;9.18;6.38;;;3.80;99.90;;;;;;4975964;28;20118;-82
2020/12/14 00:20:27;;;;;;;8.50;5.60;;;3.80;99.90;;;;;;4952820;28;20062;-80
2020/12/14 00:22:54;;;;;;;10.00;6.32;;;3.80;99.90;;;;;;4969255;28;20034;-81
2020/12/14 00:25:20;;;;;;;9.80;6.38;;;3.90;99.90;;;;;;4975017;28;20093;-82
2020/12/14 00:27:46;;;;;;;10.18;6.03;;;3.90;99.90;;;;;;4970549;28;20043;-83
2020/12/14 00:30:12;;;;;;;9.23;6.25;;;4.00;99.90;;;;;;4971081;28;20062;-82
2020/12/14 00:32:37;;;;;;;8.90;5.68;;;4.00;99.90;;;;;;4952797;28;20042;-81
2020/12/14 00:35:03;;;;;;;8.80;5.88;;;4.00;99.90;;;;;;4970909;28;20078;-83
2020/12/14 00:37:28;;;;;;;9.40;6.10;;;4.00;99.90;;;;;;4970389;28;20065;-82
2020/12/14 00:39:54;;;;;;;8.35;5.63;;;4.10;99.90;;;;;;4953202;28;20039;-82
2020/12/14 00:42:20;;;;;;;7.88;5.13;;;4.10;99.90;;;;;;4950807;28;20120;-83
2020/12/14 00:44:46;;;;;;;8.43;5.78;;;4.10;99.90;;;;;;4964556;28;20417;-81
2020/12/14 00:47:11;;;;;;;8.50;5.95;;;4.10;99.90;;;;;;4977008;28;20035;-81
2020/12/14 00:49:38;;;;;;;7.82;5.60;;;4.10;99.90;;;;;;4985469;28;20046;-81
2020/12/14 00:52:04;;;;;;;9.00;5.70;;;4.20;99.90;;;;;;4975367;28;20563;-81
2020/12/14 00:54:34;;;;;;;9.38;5.95;;;4.20;99.90;;;;;;4955757;28;20035;-81
2020/12/14 00:56:59;;;;;;;8.90;5.80;;;4.10;99.90;;;;;;4973262;28;20096;-83
2020/12/14 00:59:25;;;;;;;8.15;5.65;;;4.10;99.90;;;;;;4973264;28;20486;-83
2020/12/14 01:01:52;;;;;;;9.10;5.50;;;4.10;99.90;;;;;;4972096;28;20583;-83
2020/12/14 01:04:18;;;;;;;8.30;5.68;;;4.20;99.90;;;;;;4954872;28;20034;-81
2020/12/14 01:06:44;;;;;;;9.50;6.45;;;4.10;99.90;;;;;;4955706;28;20114;-82
2020/12/14 01:09:09;;;;;;;9.00;5.72;;;4.10;99.90;;;;;;4973626;28;20106;-82
2020/12/14 01:11:35;;;;;;;9.15;6.05;;;4.10;99.90;;;;;;4968691;28;20503;-81
2020/12/14 01:14:01;;;;;;;8.57;5.80;;;4.10;99.90;;;;;;4970336;28;20166;-81
2020/12/14 01:16:26;;;;;;;9.50;6.35;;;4.10;99.90;;;;;;4973651;28;20027;-82
2020/12/14 01:18:52;;;;;;;6.90;4.68;;;4.10;99.90;;;;;;4973572;28;20053;-82
2020/12/14 01:21:22;;;;;;;8.23;5.57;;;4.10;99.90;;;;;;4971469;28;20031;-81
2020/12/14 01:23:48;;;;;;;8.38;5.38;;;4.10;99.90;;;;;;4977884;28;20042;-81
2020/12/14 01:26:14;;;;;;;8.13;5.47;;;4.10;99.90;;;;;;4971007;28;20042;-83
2020/12/14 01:28:39;;;;;;;8.57;5.63;;;4.10;99.90;;;;;;4956338;28;20026;-84
2020/12/14 01:31:05;;;;;;;9.77;5.55;;;4.00;99.90;;;;;;4972492;28;20124;-82
2020/12/14 01:33:30;;;;;;;9.13;5.80;;;4.00;99.90;;;;;;4956470;28;20198;-81
2020/12/14 01:35:56;;;;;;;9.00;5.57;;;4.10;99.90;;;;;;4938866;28;20125;-82
2020/12/14 01:38:22;;;;;;;9.18;6.03;;;4.00;99.90;;;;;;4973278;28;20133;-82
2020/12/14 01:40:48;;;;;;;8.73;5.35;;;4.00;99.90;;;;;;4955997;28;20034;-82
2020/12/14 01:43:13;;;;;;;11.30;6.93;;;3.90;99.90;;;;;;4973651;28;20142;-84
2020/12/14 01:45:39;;;;;;;10.73;6.40;;;3.90;99.90;;;;;;4955138;28;20511;-82
2020/12/14 01:48:07;;;;;;;8.98;6.15;;;3.90;99.90;;;;;;4956038;28;20030;-82
2020/12/14 01:50:33;;;;;;;9.80;6.38;;;3.80;99.90;;;;;;4969643;28;20031;-82
2020/12/14 01:53:00;;;;;;;9.73;6.20;;;3.80;99.90;;;;;;4971610;28;20044;-82
2020/12/14 01:55:31;;;;;;;10.05;6.57;;;3.70;99.90;;;;;;4970909;28;20030;-83
2020/12/14 01:57:57;;;;;;;10.00;6.32;;;3.70;99.90;;;;;;4974530;28;20390;-82
2020/12/14 02:00:23;;;;;;;10.77;6.45;;;3.70;99.90;;;;;;4974822;28;20023;-81
2020/12/14 02:02:48;;;;;;;11.40;6.95;;;3.60;99.90;;;;;;4959036;28;20057;-81
2020/12/14 02:05:15;;;;;;;10.23;6.65;;;3.70;99.90;;;;;;4958007;28;20039;-82
2020/12/14 02:07:40;;;;;;;12.80;7.28;;;3.70;99.90;;;;;;4974323;28;20027;-83
2020/12/14 02:10:06;;;;;;;11.00;7.13;;;3.60;99.90;;;;;;4974454;28;20135;-82
2020/12/14 02:12:32;;;;;;;11.50;6.93;;;3.50;99.90;;;;;;4973705;28;20172;-82
2020/12/14 02:14:58;;;;;;;11.88;7.40;;;3.40;99.90;;;;;;4973949;28;20085;-83
2020/12/14 02:17:27;;;;;;;12.18;7.40;;;3.40;99.90;;;;;;4953364;28;20051;-82
2020/12/14 02:19:55;;;;;;;13.77;8.50;;;3.30;99.90;;;;;;4952743;28;20523;-80
2020/12/14 02:22:22;;;;;;;14.23;8.27;;;3.30;99.90;;;;;;4955077;28;20047;-83
2020/12/14 02:25:01;;;;;;;19.17;8.75;;;3.30;99.90;;;;;;4968160;28;20061;-83
2020/12/14 02:27:29;;;;;;;15.65;8.75;;;3.20;99.90;;;;;;4984354;28;20018;-82
2020/12/14 02:29:55;;;;;;;14.73;8.93;;;3.20;99.90;;;;;;4976082;28;20296;-82
2020/12/14 02:32:23;;;;;;;14.40;8.85;;;3.10;99.90;;;;;;4970729;28;20038;-81
2020/12/14 02:34:49;;;;;;;14.40;8.35;;;3.00;99.90;;;;;;4955338;28;20051;-83
2020/12/14 02:37:23;;;;;;;16.40;9.20;;;3.00;99.90;;;;;;4972106;28;20386;-83
2020/12/14 02:39:49;;;;;;;19.77;9.68;;;3.00;99.90;;;;;;4972341;28;20034;-81
2020/12/14 02:42:17;;;;;;;17.63;10.27;;;3.00;99.90;;;;;;4971849;28;20425;-82
2020/12/14 02:44:44;;;;;;;17.48;9.75;;;2.90;99.90;;;;;;4972479;28;20477;-82
2020/12/14 02:47:10;;;;;;;16.15;9.73;;;2.90;99.90;;;;;;4971319;28;20047;-82
2020/12/14 02:49:36;;;;;;;16.98;9.57;;;2.80;99.90;;;;;;4954482;28;20027;-84
2020/12/14 02:52:03;;;;;;;18.67;10.02;;;2.80;99.90;;;;;;4972073;28;20053;-82
2020/12/14 02:54:29;;;;;;;15.45;9.15;;;2.80;99.90;;;;;;4956997;28;20034;-81
2020/12/14 02:56:54;;;;;;;19.02;10.18;;;2.80;99.90;;;;;;4962447;28;20050;-81
2020/12/14 02:59:22;;;;;;;19.13;10.73;;;2.80;99.90;;;;;;4976062;28;20126;-81
2020/12/14 03:01:54;;;;;;;18.20;10.13;;;2.70;99.90;;;;;;4970495;28;20042;-81
2020/12/14 03:04:20;;;;;;;17.80;10.13;;;2.70;99.90;;;;;;4972532;28;20168;-81
2020/12/14 03:06:47;;;;;;;17.98;10.10;;;2.60;99.90;;;;;;4965815;28;20117;-83
2020/12/14 03:09:14;;;;;;;20.10;10.93;;;2.60;99.90;;;;;;4966865;28;20426;-82
2020/12/14 03:11:40;;;;;;;19.88;11.23;;;2.60;99.90;;;;;;4968843;28;20663;-81
2020/12/14 03:14:07;;;;;;;20.25;11.05;;;2.60;99.90;;;;;;4953922;28;20034;-81
2020/12/14 03:16:50;;;;;;;20.95;11.45;;;2.60;99.90;;;;;;4968865;28;20049;-80
2020/12/14 03:19:16;;;;;;;18.85;10.07;;;2.50;99.90;;;;;;4954707;28;20411;-81
2020/12/14 03:21:42;;;;;;;18.88;10.68;;;2.50;99.90;;;;;;4972961;28;20113;-83
2020/12/14 03:24:08;;;;;;;20.25;11.57;;;2.40;99.90;;;;;;4953718;28;20458;-82
2020/12/14 03:26:34;;;;;;;19.45;10.88;;;2.40;99.90;;;;;;4971247;28;20031;-81
2020/12/14 03:29:02;;;;;;;21.40;10.85;;;2.40;99.90;;;;;;4953405;28;20065;-83
2020/12/14 03:31:28;;;;;;;19.58;11.38;;;2.30;99.90;;;;;;4951789;28;20028;-81
2020/12/14 03:33:54;;;;;;;18.00;10.57;;;2.30;99.90;;;;;;4979039;28;20050;-81
2020/12/14 03:36:21;;;;;;;19.63;10.98;;;2.30;99.90;;;;;;4971992;28;20050;-82
2020/12/14 03:38:50;;;;;;;21.00;11.23;;;2.30;99.90;;;;;;4955911;28;20143;-81
2020/12/14 03:41:16;;;;;;;18.65;10.50;;;2.20;99.90;;;;;;4973052;28;20019;-81
2020/12/14 03:43:42;;;;;;;18.58;10.18;;;2.20;99.90;;;;;;4974078;28;20038;-82
2020/12/14 03:46:21;;;;;;;19.38;10.90;;;2.20;99.90;;;;;;4986618;28;20030;-79
2020/12/14 03:48:47;;;;;;;17.98;10.45;;;2.10;99.90;;;;;;4985072;28;20067;-81
2020/12/14 03:51:13;;;;;;;16.88;9.98;;;2.00;99.90;;;;;;4974434;28;20074;-81
2020/12/14 03:53:39;;;;;;;16.20;9.65;;;2.00;99.90;;;;;;4976693;28;20045;-83
2020/12/14 03:56:04;;;;;;;18.10;9.98;;;1.90;99.90;;;;;;4974214;28;20023;-82
2020/12/14 03:58:30;;;;;;;18.00;10.48;;;1.90;99.90;;;;;;4956790;28;20078;-82
2020/12/14 04:00:57;;;;;;;17.10;10.52;;;1.80;99.90;;;;;;4972565;28;20106;-83
2020/12/14 04:03:24;;;;;;;16.30;9.38;;;1.80;99.90;;;;;;4977433;28;20083;-82
2020/12/14 04:05:50;;;;;;;13.93;8.70;;;1.70;99.90;;;;;;4969079;28;20038;-80
2020/12/14 04:08:17;;;;;;;14.02;8.07;;;1.60;99.90;;;;;;4973667;28;20386;-81
2020/12/14 04:10:43;;;;;;;14.55;8.50;;;1.60;99.90;;;;;;4972801;28;20019;-80
2020/12/14 04:13:08;;;;;;;12.88;7.65;;;1.50;99.90;;;;;;4954550;28;20128;-82
2020/12/14 04:15:34;;;;;;;13.68;8.57;;;1.40;99.90;;;;;;4971490;28;20130;-80
2020/12/14 04:18:00;;;;;;;12.50;7.78;;;1.30;99.90;;;;;;4971646;28;20039;-83
2020/12/14 04:20:25;;;;;;;14.40;7.68;;;1.30;99.90;;;;;;4972999;28;20037;-82
2020/12/14 04:22:52;;;;;;;12.50;7.28;;;1.20;99.90;;;;;;4974091;28;20358;-82
2020/12/14 04:25:18;;;;;;;14.52;8.10;;;1.10;99.90;;;;;;4976746;28;20504;-82
2020/12/14 04:27:44;;;;;;;13.55;7.90;;;1.00;99.90;;;;;;4974954;28;20093;-80
2020/12/14 04:30:11;;;;;;;15.07;8.10;;;1.00;99.90;;;;;;4977027;28;20026;-82
2020/12/14 04:32:39;;;;;;;13.80;8.48;;;0.90;99.90;;;;;;4973820;28;20118;-82
2020/12/14 04:35:05;;;;;;;16.05;8.88;;;0.90;99.90;;;;;;4974439;28;20059;-81
2020/12/14 04:37:31;;;;;;;17.23;9.38;;;0.90;99.90;;;;;;4979874;28;20015;-81
2020/12/14 04:39:56;;;;;;;16.80;9.65;;;0.80;99.90;;;;;;4986344;28;20058;-82
2020/12/14 04:42:23;;;;;;;16.70;9.20;;;0.80;99.90;;;;;;4977145;28;20474;-81
2020/12/14 04:44:53;;;;;;;16.17;9.57;;;0.80;99.90;;;;;;4973778;28;20031;-83
2020/12/14 04:47:19;;;;;;;16.30;9.57;;;0.80;99.90;;;;;;4974133;28;20102;-81
2020/12/14 04:49:47;;;;;;;17.83;10.20;;;0.70;99.90;;;;;;4972832;28;20043;-81
2020/12/14 04:52:13;;;;;;;17.50;10.25;;;0.70;99.90;;;;;;4974156;28;20035;-81
2020/12/14 04:54:40;;;;;;;15.02;9.38;;;0.70;99.90;;;;;;4968265;28;20050;-81
2020/12/14 04:57:08;;;;;;;15.70;9.53;;;0.70;99.90;;;;;;4970942;28;20023;-81
2020/12/14 04:59:35;;;;;;;16.83;9.73;;;0.60;99.90;;;;;;4973567;28;20162;-81
2020/12/14 05:02:18;;;;;;;15.30;9.57;;;0.50;99.90;;;;;;4973573;28;20514;-81
2020/12/14 05:04:44;;;;;;;17.00;8.83;;;0.50;99.90;;;;;;4967114;28;20034;-81
2020/12/14 05:07:12;;;;;;;18.53;10.43;;;0.50;99.90;;;;;;4973685;28;20532;-81
2020/12/14 05:09:40;;;;;;;16.52;8.98;;;0.40;99.90;;;;;;4955884;28;20023;-81
2020/12/14 05:12:26;;;;;;;17.40;9.53;;;0.50;99.90;;;;;;4972247;28;20039;-81
2020/12/14 05:14:52;;;;;;;16.35;9.18;;;0.40;99.90;;;;;;4970492;28;20088;-83
2020/12/14 05:17:24;;;;;;;14.80;8.82;;;0.40;99.90;;;;;;4973089;28;20038;-82
2020/12/14 05:19:50;;;;;;;14.67;8.33;;;0.40;99.90;;;;;;4954394;28;20057;-82
2020/12/14 05:22:17;;;;;;;17.00;9.57;;;0.30;99.90;;;;;;4970030;28;20520;-82
2020/12/14 05:24:50;;;;;;;14.97;9.10;;;0.30;99.90;;;;;;4971937;28;20034;-81
2020/12/14 05:27:34;;;;;;;16.13;9.07;;;0.40;99.90;;;;;;4972658;28;20027;-82
2020/12/14 05:30:00;;;;;;;14.87;8.90;;;0.30;99.90;;;;;;4971597;28;20031;-82
2020/12/14 05:32:26;;;;;;;16.70;10.05;;;0.30;99.90;;;;;;4974268;28;20093;-81
2020/12/14 05:34:52;;;;;;;14.93;8.38;;;0.30;99.90;;;;;;4972321;28;20050;-81
2020/12/14 05:37:18;;;;;;;15.13;8.65;;;0.30;99.90;;;;;;4971984;28;20018;-81
2020/12/14 05:39:45;;;;;;;12.23;7.68;;;0.20;99.90;;;;;;4972174;28;20037;-81
2020/12/14 05:42:16;;;;;;;13.80;8.20;;;0.30;99.90;;;;;;4956493;28;20497;-82
2020/12/14 05:44:44;;;;;;;13.88;7.75;;;0.30;99.90;;;;;;4964217;28;20037;-82
2020/12/14 05:47:27;;;;;;;14.75;8.30;;;0.30;99.90;;;;;;4976553;28;20027;-79
2020/12/14 05:49:55;;;;;;;15.90;8.60;;;0.30;99.90;;;;;;4971685;28;20027;-79
2020/12/14 05:52:24;;;;;;;14.77;8.73;;;0.30;99.90;;;;;;4967349;28;20118;-78
2020/12/14 05:54:55;;;;;;;14.63;8.43;;;0.30;99.90;;;;;;4971486;28;20038;-79
2020/12/14 05:57:36;;;;;;;13.33;8.33;;;0.20;99.90;;;;;;4971800;28;20062;-77
2020/12/14 06:00:09;;;;;;;13.53;7.73;;;0.20;99.90;;;;;;4977024;28;20031;-86
2020/12/14 06:02:35;;;;;;;14.03;8.00;;;0.20;99.90;;;;;;4964520;28;20014;-78
2020/12/14 06:05:02;;;;;;;14.10;8.13;;;0.20;99.90;;;;;;4974537;28;20035;-78
2020/12/14 06:07:29;;;;;;;14.63;8.63;;;0.30;99.90;;;;;;4975851;28;20023;-78
2020/12/14 06:10:08;;;;;;;18.00;10.43;;;0.20;99.90;;;;;;4971468;28;20049;-78
2020/12/14 06:12:36;;;;;;;14.27;7.95;;;0.20;99.90;;;;;;4970325;28;20061;-79
2020/12/14 06:15:07;;;;;;;12.70;7.80;;;0.20;99.90;;;;;;4970891;28;20027;-80
2020/12/14 06:17:34;;;;;;;15.93;9.02;;;0.20;99.90;;;;;;4968156;28;20062;-76
2020/12/14 06:20:05;;;;;;;14.67;8.50;;;0.20;99.90;;;;;;4971721;28;20070;-77
2020/12/14 06:22:32;;;;;;;13.83;8.43;;;0.20;99.90;;;;;;4969847;28;20035;-77
2020/12/14 06:25:00;;;;;;;13.87;8.00;;;0.20;99.90;;;;;;4972265;28;20033;-78
2020/12/14 06:27:28;;;;;;;15.63;8.07;;;0.30;99.90;;;;;;4970220;28;20476;-75
2020/12/14 06:29:55;;;;;;;14.88;8.45;;;0.30;99.90;;;;;;4969710;28;20027;-75
2020/12/14 06:32:35;;;;;;;12.90;7.77;;;0.30;99.90;;;;;;4969962;28;20078;-76
2020/12/14 06:35:02;;;;;;;13.27;7.23;;;0.30;99.90;;;;;;4970923;28;20129;-76
2020/12/14 06:37:48;;;;;;;15.32;8.15;;;0.30;99.90;;;;;;4970923;28;20426;-76
2020/12/14 06:40:14;;;;;;;15.03;8.80;;;0.30;99.90;;;;;;4967595;28;20111;-82
2020/12/14 06:42:42;;;;;;;15.27;9.07;;;0.30;99.90;;;;;;4971618;28;20066;-81
2020/12/14 06:45:09;;;;;;;15.80;9.33;;;0.30;99.90;;;;;;4969922;28;20030;-76
2020/12/14 06:47:44;;;;;;;16.17;9.80;;;0.30;99.90;;;;;;4971716;28;20110;-77
2020/12/14 06:50:25;;;;;;;14.63;8.73;;;0.30;99.90;;;;;;4971292;28;20050;-77
2020/12/14 06:52:51;;;;;;;13.90;8.97;;;0.30;99.90;;;;;;4973994;28;20031;-78
2020/12/14 06:55:42;;;;;;;15.03;9.20;;;0.20;99.90;;;;;;4971750;28;20030;-77
2020/12/14 06:58:10;;;;;;;14.60;9.40;;;0.30;99.90;;;;;;4971252;28;20034;-77
2020/12/14 07:00:36;;;;;;;16.53;9.37;;;0.30;99.90;;;;;;4969979;28;20031;-78
2020/12/14 07:03:03;;;;;;;16.70;9.73;;;0.30;99.90;;;;;;4971277;28;20114;-77
2020/12/14 07:05:32;;;;;;;15.98;9.13;;;0.30;99.90;;;;;;4966930;28;20038;-77
2020/12/14 07:07:58;;;;;;;14.65;9.25;;;0.30;99.90;;;;;;4971854;28;20048;-78
2020/12/14 07:10:30;;;;;;;15.07;9.30;;;0.30;99.90;;;;;;4971030;28;20311;-80
2020/12/14 07:13:00;;;;;;;16.10;9.43;;;0.40;99.90;;;;;;4968847;28;20126;-77
2020/12/14 07:15:27;;;;;;;15.00;8.90;;;0.40;99.90;;;;;;4952081;28;20031;-76
2020/12/14 07:18:04;;;;;;;21.60;11.50;;;0.40;99.90;;;;;;4967727;28;20038;-78
2020/12/14 07:20:31;;;;;;;25.42;14.25;;;0.50;99.90;;;;;;4967970;28;20499;-78
2020/12/14 07:23:09;;;;;;;21.23;12.25;;;0.50;99.90;;;;;;4970877;28;20101;-77
2020/12/14 07:25:35;;;;;;;18.07;10.43;;;0.50;99.90;;;;;;4970577;28;20037;-79
2020/12/14 07:28:02;;;;;;;15.57;9.57;;;0.50;99.90;;;;;;4970759;28;20030;-77
2020/12/14 07:30:28;;;;;;;14.57;7.95;;;0.60;99.90;;;;;;4971048;28;20022;-78
2020/12/14 07:32:54;;;;;;;17.02;9.68;;;0.60;99.90;;;;;;4974663;28;20121;-77
2020/12/14 07:35:20;;;;;;;14.45;8.73;;;0.60;99.90;;;;;;4972375;28;20046;-76
2020/12/14 07:37:46;;;;;;;15.17;8.73;;;0.70;99.90;;;;;;4990285;28;20022;-77
2020/12/14 07:40:13;;;;;;;14.00;8.27;;;0.70;99.90;;;;;;4989821;28;20496;-78
2020/12/14 07:42:47;;;;;;;13.88;7.05;;;0.70;99.90;;;;;;4991023;28;20029;-76
2020/12/14 07:45:17;;;;;;;11.52;7.28;;;0.80;99.90;;;;;;4989473;28;20019;-77
2020/12/14 07:47:45;;;;;;;9.23;5.85;;;0.80;99.90;;;;;;4989855;28;20099;-75
2020/12/14 07:50:22;;;;;;;10.18;5.50;;;0.90;99.90;;;;;;4990170;28;20025;-77
2020/12/14 07:52:53;;;;;;;8.68;5.35;;;0.90;99.90;;;;;;4990184;28;20501;-78
2020/12/14 07:55:19;;;;;;;10.43;5.70;;;1.00;99.90;;;;;;5002171;28;20668;-76
2020/12/14 07:57:47;;;;;;;10.23;5.65;;;1.00;99.90;;;;;;5010545;28;20085;-77
2020/12/14 08:00:23;;;;;;;9.55;5.53;;;1.10;99.90;;;;;;5003212;28;20404;-78
2020/12/14 08:02:50;;;;;;;8.38;4.80;;;1.20;99.90;;;;;;4998256;28;20062;-79
2020/12/14 08:05:19;;;;;;;7.07;4.97;;;1.20;99.90;;;;;;4996488;28;20124;-78
2020/12/14 08:07:53;;;;;;;7.53;4.97;;;1.30;99.90;;;;;;4996425;28;20022;-78
2020/12/14 08:10:34;;;;;;;8.13;5.03;;;1.30;99.90;;;;;;5000397;28;20045;-78
2020/12/14 08:13:11;;;;;;;7.70;5.07;;;1.40;99.90;;;;;;4995022;28;20041;-77
2020/12/14 08:15:38;;;;;;;8.45;5.10;;;1.50;99.90;;;;;;4994955;28;20025;-76
2020/12/14 08:18:07;;;;;;;8.80;5.55;;;1.60;99.90;;;;;;4994398;28;20100;-78
2020/12/14 08:20:34;;;;;;;9.10;5.53;;;1.70;99.90;;;;;;4994676;28;20027;-79
2020/12/14 08:23:02;;;;;;;9.65;6.15;;;1.80;99.90;;;;;;4993790;28;20030;-77
2020/12/14 08:25:30;;;;;;;9.68;5.82;;;1.80;99.90;;;;;;4993349;28;20066;-77
2020/12/14 08:27:59;;;;;;;10.10;6.00;;;1.90;99.90;;;;;;4994537;28;20019;-78
2020/12/14 08:30:25;;;;;;;7.78;5.07;;;1.90;99.90;;;;;;4993949;28;20022;-78
2020/12/14 08:33:10;;;;;;;8.98;5.43;;;2.00;99.90;;;;;;4992730;28;20137;-78
2020/12/14 08:35:38;;;;;;;9.23;5.47;;;2.20;99.90;;;;;;4974341;28;20039;-79
2020/12/14 08:38:07;;;;;;;9.80;5.47;;;2.20;99.90;;;;;;4974178;28;20034;-79
2020/12/14 08:40:34;;;;;;;10.27;6.10;;;2.30;99.90;;;;;;4973390;28;20037;-79
2020/12/14 08:43:10;;;;;;;10.35;5.70;;;2.50;99.90;;;;;;4974304;28;20030;-79
2020/12/14 08:45:39;;;;;;;8.88;5.25;;;2.50;99.90;;;;;;4973321;28;20030;-78
2020/12/14 08:48:04;;;;;;;8.93;4.93;;;2.60;99.90;;;;;;4973046;28;20019;-78
2020/12/14 08:50:31;;;;;;;8.35;4.75;;;2.70;99.90;;;;;;4973134;28;20089;-78
2020/12/14 08:53:01;;;;;;;10.38;4.57;;;2.80;99.90;;;;;;4972723;28;20062;-76
2020/12/14 08:55:40;;;;;;;7.63;4.28;;;2.90;99.90;;;;;;4972617;28;20474;-79
2020/12/14 08:58:07;;;;;;;9.38;4.78;;;3.00;99.90;;;;;;4971627;28;20054;-78
2020/12/14 09:00:33;;;;;;;8.77;5.25;;;3.10;99.90;;;;;;4974022;28;20031;-76
2020/12/14 09:03:02;;;;;;;7.45;4.35;;;3.20;99.90;;;;;;4973301;28;20105;-79
2020/12/14 09:05:35;;;;;;;7.85;4.32;;;3.30;99.90;;;;;;4974426;28;20027;-79
2020/12/14 09:08:15;;;;;;;7.05;4.55;;;3.40;99.90;;;;;;4973091;28;20026;-77
2020/12/14 09:10:41;;;;;;;9.20;4.75;;;3.40;99.90;;;;;;4971157;28;20199;-77
2020/12/14 09:13:07;;;;;;;8.45;4.97;;;3.50;99.90;;;;;;4969150;28;20038;-78
2020/12/14 09:15:34;;;;;;;9.70;5.63;;;3.50;99.90;;;;;;4972143;28;20034;-77
2020/12/14 09:18:09;;;;;;;7.82;4.53;;;3.60;99.90;;;;;;4971780;28;20110;-78
2020/12/14 09:20:35;;;;;;;5.97;3.95;;;3.70;99.90;;;;;;4971333;28;20018;-78
2020/12/14 09:23:01;;;;;;;6.43;3.92;;;3.90;99.90;;;;;;4972329;28;20077;-77
2020/12/14 09:25:27;;;;;;;5.28;3.75;;;3.90;99.90;;;;;;4968886;28;20053;-77
2020/12/14 09:27:53;;;;;;;5.47;3.00;;;4.00;99.90;;;;;;4972926;28;20038;-77
2020/12/14 09:30:19;;;;;;;3.90;2.42;;;4.10;99.90;;;;;;4973066;28;20027;-77
2020/12/14 09:32:45;;;;;;;3.97;2.72;;;4.20;99.90;;;;;;4972403;28;20121;-77
2020/12/14 09:35:11;;;;;;;4.22;2.65;;;4.20;99.90;;;;;;4990522;28;20133;-77
2020/12/14 09:37:36;;;;;;;4.30;2.15;;;4.30;99.90;;;;;;4991926;28;20196;-79
2020/12/14 09:40:04;;;;;;;4.72;2.42;;;4.40;99.90;;;;;;4992734;28;20379;-78
2020/12/14 09:42:30;;;;;;;6.90;2.90;;;4.40;99.90;;;;;;4992747;28;20038;-78
2020/12/14 09:44:56;;;;;;;4.18;2.55;;;4.50;99.90;;;;;;4973090;28;20030;-78
2020/12/14 09:47:22;;;;;;;4.82;2.50;;;4.50;99.90;;;;;;4989796;28;20497;-77
2020/12/14 09:49:49;;;;;;;6.65;3.00;;;4.60;99.90;;;;;;4990897;28;20034;-77
2020/12/14 09:52:15;;;;;;;4.88;2.15;;;4.70;99.90;;;;;;4990927;28;20034;-78
2020/12/14 09:54:40;;;;;;;3.63;2.33;;;4.90;99.90;;;;;;4991057;28;20029;-80
2020/12/14 09:57:06;;;;;;;4.47;2.50;;;4.90;99.90;;;;;;4991979;28;20110;-77
2020/12/14 09:59:32;;;;;;;4.30;2.67;;;4.90;99.90;;;;;;4991157;28;20101;-78
2020/12/14 10:01:57;;;;;;;3.95;2.30;;;5.00;99.90;;;;;;4991282;28;20026;-77
2020/12/14 10:04:23;;;;;;;5.63;2.85;;;5.00;99.90;;;;;;4991551;28;20027;-77
2020/12/14 10:06:49;;;;;;;4.80;2.78;;;5.10;99.90;;;;;;4992010;28;20037;-78
2020/12/14 10:09:15;;;;;;;4.28;2.17;;;5.10;99.90;;;;;;4995951;28;20030;-77
2020/12/14 10:11:41;;;;;;;5.13;2.40;;;5.20;99.90;;;;;;5000339;28;20053;-77
2020/12/14 10:14:07;;;;;;;3.42;2.33;;;5.30;99.90;;;;;;4993223;28;20110;-77
2020/12/14 10:16:32;;;;;;;4.10;2.22;;;5.40;99.90;;;;;;4991041;28;20028;-77
2020/12/14 10:18:59;;;;;;;3.50;2.33;;;5.30;99.90;;;;;;4991178;28;20028;-77
2020/12/14 10:21:24;;;;;;;5.68;1.90;;;5.40;99.90;;;;;;4990925;28;20019;-78
2020/12/14 10:23:50;;;;;;;3.05;2.05;;;5.50;99.90;;;;;;4988666;28;20018;-78
2020/12/14 10:26:19;;;;;;;3.17;1.70;;;5.70;99.90;;;;;;4990310;28;20092;-76
2020/12/14 10:28:45;;;;;;;4.40;2.22;;;5.70;99.90;;;;;;4991376;28;20076;-78
2020/12/14 10:31:10;;;;;;;3.90;2.25;;;5.60;99.90;;;;;;4990074;28;20026;-78
2020/12/14 10:33:38;;;;;;;3.80;1.92;;;5.70;99.90;;;;;;4990039;28;20072;-79
2020/12/14 10:36:10;;;;;;;2.60;1.50;;;5.90;99.90;;;;;;4991310;28;20018;-79
2020/12/14 10:38:37;;;;;;;2.72;1.60;;;6.00;99.90;;;;;;4973973;28;20507;-78
2020/12/14 10:41:03;;;;;;;2.83;1.70;;;6.10;99.90;;;;;;4991229;28;20433;-77
2020/12/14 10:43:30;;;;;;;3.15;1.50;;;6.10;99.90;;;;;;4990815;28;20417;-79
2020/12/14 10:45:56;;;;;;;3.33;2.22;;;6.20;99.90;;;;;;4990513;28;20102;-78
2020/12/14 10:48:21;;;;;;;5.38;2.25;;;6.30;99.90;;;;;;4990738;28;20046;-78
2020/12/14 10:50:47;;;;;;;3.80;2.10;;;6.40;99.90;;;;;;4989407;28;20069;-78
2020/12/14 10:53:13;;;;;;;6.35;2.20;;;6.30;99.90;;;;;;4971209;28;20038;-78
2020/12/14 10:55:38;;;;;;;4.45;1.88;;;6.20;99.90;;;;;;4989185;28;20479;-78
2020/12/14 10:58:04;;;;;;;3.92;2.35;;;6.20;99.90;;;;;;4990435;28;20026;-76
2020/12/14 11:00:30;;;;;;;5.30;2.45;;;6.50;99.90;;;;;;4989553;28;20131;-78
2020/12/14 11:02:59;;;;;;;5.57;2.50;;;6.60;99.90;;;;;;4989499;28;20437;-79
2020/12/14 11:05:25;;;;;;;3.65;2.05;;;6.60;99.90;;;;;;4989180;28;20015;-78
2020/12/14 11:07:50;;;;;;;4.93;3.13;;;6.70;99.90;;;;;;4990054;28;20022;-77
2020/12/14 11:10:16;;;;;;;4.50;2.80;;;6.90;99.90;;;;;;4989600;28;20031;-76
2020/12/14 11:12:42;;;;;;;4.85;2.70;;;7.00;99.90;;;;;;4989747;28;20089;-77
2020/12/14 11:15:12;;;;;;;11.27;5.18;;;7.10;99.90;;;;;;4991344;28;20367;-80
2020/12/14 11:17:38;;;;;;;6.35;3.42;;;7.00;99.90;;;;;;4994488;28;20402;-78
2020/12/14 11:20:08;;;;;;;6.55;2.25;;;7.10;99.90;;;;;;4990298;28;20030;-78
2020/12/14 11:22:40;;;;;;;3.80;2.20;;;7.20;99.90;;;;;;4990362;28;20049;-77
2020/12/14 11:25:09;;;;;;;4.38;1.95;;;7.20;99.90;;;;;;4989719;28;20076;-77
2020/12/14 11:27:35;;;;;;;4.57;2.30;;;7.00;99.90;;;;;;4989723;28;20759;-77
2020/12/14 11:30:01;;;;;;;4.35;1.90;;;7.00;99.90;;;;;;4989394;28;20056;-77
2020/12/14 11:32:27;;;;;;;3.85;2.15;;;7.00;99.90;;;;;;4990213;28;20113;-78
2020/12/14 11:34:53;;;;;;;3.53;2.03;;;6.90;99.90;;;;;;4988967;28;20042;-77
2020/12/14 11:37:18;;;;;;;5.22;2.38;;;6.90;99.90;;;;;;4989658;28;20081;-77
2020/12/14 11:39:45;;;;;;;4.78;2.30;;;7.00;99.90;;;;;;4988638;28;20062;-76
2020/12/14 11:42:10;;;;;;;3.95;2.40;;;7.00;99.90;;;;;;4988122;28;20065;-77
2020/12/14 11:44:49;;;;;;;;;;;;;;;;;;;;;
2020/12/14 11:47:30;;;;;;;;;;;;;;;;;;;;;
2020/12/14 11:50:11;;;;;;;3.08;1.80;;;7.60;99.90;;;;;;4991551;28;20034;-77
2020/12/14 11:52:47;;;;;;;;;;;;;;;;;;;;;
2020/12/14 11:55:13;;;;;;;4.65;2.05;;;7.60;99.90;;;;;;4992265;28;20033;-77
2020/12/14 11:57:48;;;;;;;8.48;4.03;;;7.70;99.90;;;;;;4989234;28;20599;-78
2020/12/14 12:00:14;;;;;;;9.63;3.38;;;7.60;99.90;;;;;;5002155;28;20082;-78
2020/12/14 12:02:39;;;;;;;5.85;2.58;;;7.60;99.90;;;;;;5002177;28;20057;-77
2020/12/14 12:05:05;;;;;;;10.25;4.82;;;7.50;99.90;;;;;;4994195;28;20049;-78
2020/12/14 12:08:00;;;;;;;23.15;16.70;;;7.50;99.90;;;;;;4989587;28;20998;-77
2020/12/14 12:10:44;;;;;;;5.72;3.47;;;7.50;99.90;;;;;;4971899;28;20031;-76
2020/12/14 12:13:09;;;;;;;3.90;2.58;;;7.60;99.90;;;;;;4988998;28;20101;-78
2020/12/14 12:15:35;;;;;;;7.45;2.88;;;7.60;99.90;;;;;;4991074;28;20018;-77
2020/12/14 12:18:01;;;;;;;5.45;1.70;;;7.70;99.90;;;;;;4996636;28;20030;-78
2020/12/14 12:20:27;;;;;;;5.15;1.63;;;8.00;99.90;;;;;;4990397;28;20128;-78
2020/12/14 12:22:58;;;;;;;4.25;2.20;;;8.10;99.90;;;;;;4994573;28;20125;-78
2020/12/14 12:25:25;;;;;;;5.22;2.17;;;8.30;99.90;;;;;;4988452;28;20078;-79
2020/12/14 12:27:51;;;;;;;3.55;1.70;;;8.20;99.90;;;;;;4990760;28;20026;-77
2020/12/14 12:30:17;;;;;;;4.30;2.10;;;8.20;99.90;;;;;;4975713;28;20034;-77
2020/12/14 12:32:42;;;;;;;6.40;2.60;;;8.30;99.90;;;;;;4989588;28;20042;-76
2020/12/14 12:35:08;;;;;;;5.25;2.30;;;8.00;99.90;;;;;;4974469;28;20055;-78
2020/12/14 12:37:33;;;;;;;4.57;1.92;;;8.00;99.90;;;;;;4988687;28;20073;-77
2020/12/14 12:40:01;;;;;;;5.18;2.20;;;8.10;99.90;;;;;;4987632;28;20494;-78
2020/12/14 12:42:27;;;;;;;3.08;2.05;;;8.10;99.90;;;;;;4992227;28;20033;-77
2020/12/14 12:44:52;;;;;;;4.95;2.10;;;8.20;99.90;;;;;;4974460;28;20026;-78
2020/12/14 12:47:18;;;;;;;5.03;2.13;;;8.30;99.90;;;;;;4992090;28;20081;-77
2020/12/14 12:49:43;;;;;;;4.32;2.30;;;8.40;99.90;;;;;;4992484;28;20026;-77
2020/12/14 12:52:09;;;;;;;3.90;1.88;;;8.60;99.90;;;;;;4989362;28;20109;-76
2020/12/14 12:54:35;;;;;;;4.38;2.00;;;8.80;99.90;;;;;;4990286;28;20505;-77
2020/12/14 12:57:04;;;;;;;7.03;3.83;;;8.80;99.90;;;;;;4990165;28;20065;-76